LFGJ/DLE METAR and TAF weather

Enter ICAO airport designator
Station Type Date Time Source
LFGJ METAR 2019/10/14 06:30 UTC NOAA

LFGJ 140630Z AUTO 19008KT CAVOK 17/12 Q1014 TEMPO 20017G30KT


Station Type Date Time Source
LFGJ Decoded METAR 2019/10/14 06:30 UTC NOAA

Dole Tavaux, France (LFGJ) 47-02-34N 005-26-06E
Oct 14, 2019 - 02:30 AM EDT / 2019.10.14 0630 UTC
Wind: from the S (190 degrees) at 9 MPH (8 KT):0
Visibility: greater than 7 mile(s):0
Temperature: 62 F (17 C)
Dew Point: 53 F (12 C)
Relative Humidity: 72%
Pressure (altimeter): 29.94 in. Hg (1014 hPa)
ob: LFGJ 140630Z AUTO 19008KT CAVOK 17/12 Q1014 TEMPO 20017G30KT
cycle: 6

Station Type Date Time Source
LFGJ TAF 2012/05/01 21:57 UTC NOAA

TAF
AMD TAF
AMD LFGJ 010355Z 3021/0106 18008KT 9999 FEW023 SCT035 BKN050
TEMPO 0102/0103 4000 -SHRA BR FEW012TCU BKN015
BECMG 0103/0104 VRB03KT 0200 FG VV///

Example: see airport list